createdAt,value
2023-04-20T00:01:25.863Z,55.65
2023-04-20T00:03:52.765Z,55.83
2023-04-20T00:06:21.980Z,55.68
2023-04-20T00:08:49.066Z,56.04
2023-04-20T00:11:15.953Z,56.51
2023-04-20T00:13:42.916Z,57.70
2023-04-20T00:16:09.653Z,58.45
2023-04-20T00:18:36.339Z,58.93
2023-04-20T00:21:26.229Z,59.09
2023-04-20T00:23:53.417Z,58.41
2023-04-20T00:26:31.580Z,58.38
2023-04-20T00:28:58.351Z,60.01
2023-04-20T00:31:28.077Z,60.58
2023-04-20T00:33:54.904Z,60.01
2023-04-20T00:36:21.971Z,60.46
2023-04-20T00:38:48.879Z,61.64
2023-04-20T00:41:15.739Z,62.74
2023-04-20T00:44:01.018Z,63.45
2023-04-20T00:46:27.976Z,61.57
2023-04-20T00:49:12.389Z,60.67
2023-04-20T00:51:39.423Z,60.72
2023-04-20T00:54:06.427Z,61.56
2023-04-20T00:56:33.157Z,62.32
2023-04-20T00:59:05.085Z,62.00
2023-04-20T01:01:32.017Z,62.14
2023-04-20T01:03:58.923Z,62.24
2023-04-20T01:06:31.892Z,61.67
2023-04-20T01:08:58.702Z,61.70
2023-04-20T01:11:25.450Z,60.95
2023-04-20T01:14:11.555Z,61.63
2023-04-20T01:16:38.205Z,61.45
2023-04-20T01:19:05.052Z,61.43
2023-04-20T01:21:35.440Z,60.90
2023-04-20T01:24:02.361Z,60.77
2023-04-20T01:26:29.371Z,61.00
2023-04-20T01:29:26.174Z,61.07
2023-04-20T01:31:52.996Z,61.12
2023-04-20T01:34:19.658Z,60.85
2023-04-20T01:36:46.554Z,60.85
2023-04-20T01:39:13.442Z,60.83
2023-04-20T01:41:40.858Z,60.91
2023-04-20T01:44:07.537Z,62.10
2023-04-20T01:46:37.782Z,62.46
2023-04-20T01:53:04.328Z,62.99
2023-04-20T01:55:31.002Z,63.19
2023-04-20T01:58:31.394Z,62.69
2023-04-20T02:00:58.199Z,63.04
2023-04-20T02:03:26.854Z,63.42
2023-04-20T02:05:54.345Z,63.35
2023-04-20T02:08:21.319Z,63.18
2023-04-20T02:10:47.980Z,63.22
2023-04-20T02:13:22.026Z,63.39
2023-04-20T02:15:48.691Z,63.71
2023-04-20T02:18:19.608Z,63.75
2023-04-20T02:20:46.475Z,63.74
2023-04-20T02:23:13.666Z,64.54
2023-04-20T02:26:28.724Z,64.30
2023-04-20T02:28:55.553Z,66.06
2023-04-20T02:31:22.516Z,66.21
2023-04-20T02:34:12.396Z,65.89
2023-04-20T02:36:39.378Z,65.53
2023-04-20T02:39:06.209Z,65.89
2023-04-20T02:45:33.465Z,65.42
2023-04-20T02:48:00.796Z,65.37
2023-04-20T02:50:30.943Z,66.20
2023-04-20T02:53:19.152Z,66.72
2023-04-20T02:55:50.989Z,66.81
2023-04-20T02:58:36.314Z,66.42
2023-04-20T03:01:50.370Z,66.70
2023-04-20T03:04:22.326Z,66.68
2023-04-20T03:10:42.347Z,67.09
2023-04-20T03:13:27.095Z,66.80
2023-04-20T03:15:57.033Z,66.27
2023-04-20T03:18:56.747Z,65.97
2023-04-20T03:21:23.764Z,66.03
2023-04-20T03:23:50.591Z,66.15
2023-04-20T03:26:17.906Z,66.01
2023-04-20T03:32:54.691Z,68.04
2023-04-20T03:35:41.004Z,67.18
2023-04-20T03:38:08.014Z,66.99
2023-04-20T03:40:34.856Z,67.16
2023-04-20T03:43:02.595Z,67.11
2023-04-20T03:45:29.597Z,66.47
2023-04-20T03:47:56.561Z,66.68
2023-04-20T03:50:24.904Z,66.52
2023-04-20T03:52:51.830Z,67.46
2023-04-20T03:55:18.634Z,67.43
2023-04-20T03:57:51.223Z,67.46
2023-04-20T04:00:20.669Z,68.38
2023-04-20T04:02:47.356Z,68.82
2023-04-20T04:05:20.104Z,69.00
2023-04-20T04:07:52.825Z,69.67
2023-04-20T04:10:20.360Z,68.56
2023-04-20T04:13:20.605Z,68.78
2023-04-20T04:15:47.238Z,68.65
2023-04-20T04:18:15.200Z,68.35
2023-04-20T04:20:42.482Z,67.93
2023-04-20T04:23:11.718Z,68.38
2023-04-20T04:25:46.704Z,68.13
2023-04-20T04:28:14.898Z,67.82
2023-04-20T04:31:12.394Z,68.34
2023-04-20T04:33:49.907Z,68.36
2023-04-20T04:36:36.946Z,67.45
2023-04-20T04:39:12.571Z,68.89
2023-04-20T04:41:46.015Z,68.99
2023-04-20T04:44:21.356Z,68.72
2023-04-20T04:47:29.900Z,69.10
2023-04-20T04:49:56.675Z,82.49
2023-04-20T04:56:23.655Z,96.36
2023-04-20T04:58:50.930Z,69.48
2023-04-20T05:01:39.812Z,66.47
2023-04-20T05:04:07.153Z,65.30
2023-04-20T05:07:10.543Z,66.32
2023-04-20T05:09:38.024Z,66.54
2023-04-20T05:12:06.990Z,66.75
2023-04-20T05:14:36.470Z,66.96
2023-04-20T05:17:03.848Z,67.57
2023-04-20T05:19:30.824Z,67.25
2023-04-20T05:22:00.282Z,67.40
2023-04-20T05:24:29.806Z,67.36
2023-04-20T05:30:43.476Z,67.13
2023-04-20T05:33:19.497Z,67.18
2023-04-20T05:35:48.999Z,67.58
2023-04-20T05:38:18.938Z,67.77
2023-04-20T05:40:47.106Z,67.83
2023-04-20T05:43:14.769Z,67.91
2023-04-20T05:45:41.794Z,68.96
2023-04-20T05:48:13.757Z,69.00
2023-04-20T05:50:40.799Z,70.34
2023-04-20T05:53:31.512Z,70.65
2023-04-20T05:55:58.331Z,69.13
2023-04-20T05:58:25.737Z,68.16
2023-04-20T06:00:52.523Z,68.04
2023-04-20T06:03:22.688Z,68.06
2023-04-20T06:05:52.185Z,67.88
2023-04-20T06:08:19.495Z,67.93
2023-04-20T06:10:46.429Z,68.42
2023-04-20T06:13:13.134Z,68.27
2023-04-20T06:22:37.262Z,69.06
2023-04-20T06:25:04.832Z,69.08
2023-04-20T06:27:31.615Z,69.18
2023-04-20T06:29:58.586Z,69.21
2023-04-20T06:32:25.476Z,68.76
2023-04-20T06:34:52.902Z,68.72
2023-04-20T06:37:20.635Z,68.03
2023-04-20T06:39:47.620Z,69.67
2023-04-20T06:42:21.495Z,70.78
2023-04-20T06:44:48.347Z,72.65
2023-04-20T06:47:16.231Z,73.64
2023-04-20T06:49:43.568Z,73.36
2023-04-20T06:52:11.745Z,72.80
2023-04-20T06:54:41.361Z,72.21
2023-04-20T06:57:10.314Z,72.07
2023-04-20T06:59:37.157Z,72.10
2023-04-20T07:02:04.321Z,72.34
2023-04-20T07:04:35.285Z,74.27
2023-04-20T07:07:02.205Z,72.80
2023-04-20T07:09:29.135Z,73.07
2023-04-20T07:11:56.540Z,72.73
2023-04-20T07:14:23.408Z,73.91
2023-04-20T07:16:54.120Z,73.55
2023-04-20T07:19:21.267Z,72.51
2023-04-20T07:21:48.196Z,73.44
2023-04-20T07:24:15.243Z,73.95
2023-04-20T07:26:44.116Z,73.58
2023-04-20T07:29:13.789Z,74.52
2023-04-20T07:31:40.834Z,73.45
2023-04-20T07:34:07.667Z,72.35
2023-04-20T07:36:39.213Z,70.62
2023-04-20T07:39:06.212Z,70.09
2023-04-20T07:41:33.015Z,69.04
2023-04-20T07:43:59.830Z,69.67
2023-04-20T07:46:34.014Z,69.70
2023-04-20T07:49:00.736Z,69.43
2023-04-20T07:51:30.534Z,69.90
2023-04-20T07:53:57.487Z,69.03
2023-04-20T07:56:24.309Z,69.88
2023-04-20T07:58:51.099Z,68.67
2023-04-20T08:01:17.978Z,69.54
2023-04-20T08:03:45.082Z,69.85
2023-04-20T08:06:12.188Z,69.88
2023-04-20T08:08:40.079Z,69.34
2023-04-20T08:11:08.332Z,70.47
2023-04-20T08:13:36.836Z,72.31
2023-04-20T08:16:03.672Z,71.54
2023-04-20T08:19:10.351Z,69.62
2023-04-20T08:21:41.011Z,69.29
2023-04-20T08:24:08.662Z,67.27
2023-04-20T08:26:36.596Z,65.31
2023-04-20T08:29:04.330Z,64.28
2023-04-20T08:31:32.372Z,63.04
2023-04-20T08:33:59.465Z,64.67
2023-04-20T08:36:26.918Z,65.88
2023-04-20T08:38:57.915Z,64.39
2023-04-20T08:41:26.052Z,65.26
2023-04-20T08:43:52.955Z,65.39
2023-04-20T08:46:20.109Z,66.00
2023-04-20T08:48:48.746Z,66.55
2023-04-20T08:51:17.413Z,65.62
2023-04-20T08:53:44.450Z,64.48
2023-04-20T08:56:11.684Z,64.73
2023-04-20T08:58:42.313Z,63.35
2023-04-20T09:01:11.154Z,61.96
2023-04-20T09:03:41.370Z,63.08
2023-04-20T09:06:18.885Z,61.83
2023-04-20T09:08:46.810Z,62.28
2023-04-20T09:11:34.887Z,61.66
2023-04-20T09:14:24.562Z,64.91
2023-04-20T09:16:52.554Z,64.00
2023-04-20T09:19:27.091Z,62.80
2023-04-20T09:21:56.598Z,61.14
2023-04-20T09:24:33.486Z,62.50
2023-04-20T09:27:28.885Z,61.23
2023-04-20T09:30:01.245Z,57.46
2023-04-20T09:32:29.046Z,56.22
2023-04-20T09:34:57.028Z,57.95
2023-04-20T09:37:47.710Z,59.43
2023-04-20T09:40:14.908Z,60.79
2023-04-20T09:42:43.585Z,59.34
2023-04-20T09:45:14.845Z,55.36
2023-04-20T09:47:43.139Z,56.01
2023-04-20T09:50:26.739Z,56.26
2023-04-20T09:53:00.474Z,56.35
2023-04-20T09:55:28.155Z,57.96
2023-04-20T09:57:56.978Z,57.54
2023-04-20T10:00:23.917Z,58.34
2023-04-20T10:02:53.866Z,57.56
2023-04-20T10:05:32.239Z,56.42
2023-04-20T10:08:00.890Z,58.10
2023-04-20T10:10:30.427Z,59.79
2023-04-20T10:13:00.136Z,62.08
2023-04-20T10:15:41.259Z,61.46
2023-04-20T10:18:20.045Z,62.43
2023-04-20T10:20:47.427Z,62.38
2023-04-20T10:23:59.179Z,61.11
2023-04-20T10:26:41.867Z,61.42
2023-04-20T10:29:09.223Z,62.86
2023-04-20T10:35:26.429Z,62.95
2023-04-20T10:37:53.205Z,61.86
2023-04-20T10:40:40.399Z,63.38
2023-04-20T10:47:09.235Z,61.97
2023-04-20T10:50:15.131Z,61.09
2023-04-20T10:53:32.050Z,58.64
2023-04-20T10:56:00.228Z,56.71
2023-04-20T10:58:27.159Z,56.60
2023-04-20T11:00:58.306Z,55.00
2023-04-20T11:03:26.332Z,57.60
2023-04-20T11:05:53.327Z,60.44
2023-04-20T11:08:20.356Z,61.52
2023-04-20T11:10:47.254Z,60.85
2023-04-20T11:13:25.845Z,59.78
2023-04-20T11:15:53.736Z,59.43
2023-04-20T11:18:51.631Z,58.61
2023-04-20T11:21:20.977Z,59.78
2023-04-20T11:23:50.501Z,58.56
2023-04-20T11:26:17.386Z,56.86
2023-04-20T11:28:56.229Z,57.94
2023-04-20T11:31:24.272Z,57.91
2023-04-20T11:33:51.434Z,57.96
2023-04-20T11:36:44.914Z,58.33
2023-04-20T11:39:36.323Z,57.75
2023-04-20T11:42:28.881Z,58.37
2023-04-20T11:44:56.584Z,57.50
2023-04-20T11:47:25.814Z,59.32
2023-04-20T11:49:52.678Z,59.31
2023-04-20T11:52:19.794Z,58.34
2023-04-20T11:54:46.950Z,57.82
2023-04-20T11:57:19.043Z,58.55
2023-04-20T11:59:48.947Z,56.93
2023-04-20T12:02:16.187Z,56.42
2023-04-20T12:04:43.264Z,58.72
2023-04-20T12:07:45.417Z,61.13
2023-04-20T12:10:33.993Z,62.05
2023-04-20T12:13:04.375Z,60.50
2023-04-20T12:15:43.477Z,62.67
2023-04-20T12:18:26.256Z,58.33
2023-04-20T12:20:55.533Z,58.35
2023-04-20T12:23:22.580Z,58.57
2023-04-20T12:26:10.013Z,58.87
2023-04-20T12:28:37.969Z,60.63
2023-04-20T12:31:38.050Z,59.60
2023-04-20T12:34:48.998Z,58.47
2023-04-20T12:37:41.817Z,58.66
2023-04-20T12:40:26.999Z,58.89
2023-04-20T12:46:48.170Z,57.35
2023-04-20T12:49:14.968Z,57.27
2023-04-20T12:51:41.867Z,60.96
2023-04-20T13:02:09.225Z,72.93
2023-04-20T13:12:41.900Z,83.34
2023-04-20T13:15:09.631Z,84.59
2023-04-20T13:17:48.849Z,85.82
2023-04-20T13:20:21.334Z,86.23
2023-04-20T13:23:29.022Z,83.10
2023-04-20T13:25:59.327Z,85.70
2023-04-20T13:28:26.332Z,86.08
2023-04-20T13:31:10.663Z,85.85
2023-04-20T13:33:37.485Z,85.50
2023-04-20T13:36:04.860Z,82.78
2023-04-20T13:38:38.210Z,83.27
2023-04-20T13:41:05.365Z,83.91
2023-04-20T13:43:57.960Z,84.08
2023-04-20T13:46:25.107Z,82.33
2023-04-20T13:49:16.993Z,83.01
2023-04-20T13:51:44.001Z,83.71
2023-04-20T13:54:11.183Z,82.46
2023-04-20T13:56:38.127Z,82.51
2023-04-20T13:59:04.982Z,79.45
2023-04-20T14:01:45.257Z,81.91
2023-04-20T14:04:12.345Z,80.91
2023-04-20T14:06:39.332Z,81.98
2023-04-20T14:09:08.268Z,80.33
2023-04-20T14:11:37.588Z,80.22
2023-04-20T14:14:04.556Z,78.54
2023-04-20T14:16:31.662Z,80.70
2023-04-20T14:19:01.062Z,80.62
2023-04-20T14:21:28.031Z,83.16
2023-04-20T14:23:56.145Z,83.06
2023-04-20T14:26:44.203Z,78.02
2023-04-20T14:29:11.210Z,78.46
2023-04-20T14:31:38.781Z,81.87
2023-04-20T14:34:15.754Z,81.30
2023-04-20T14:36:43.029Z,76.25
2023-04-20T14:39:24.393Z,78.48
2023-04-20T14:41:51.310Z,76.86
2023-04-20T14:44:18.285Z,74.62
2023-04-20T14:46:45.676Z,75.24
2023-04-20T14:49:12.713Z,73.28
2023-04-20T14:51:41.912Z,73.87
2023-04-20T14:54:08.841Z,71.93
2023-04-20T14:57:04.648Z,74.83
2023-04-20T14:59:33.697Z,75.11
2023-04-20T15:02:03.314Z,77.26
2023-04-20T15:04:30.776Z,78.64
2023-04-20T15:07:14.231Z,78.16
2023-04-20T15:09:41.171Z,79.31
2023-04-20T15:12:07.949Z,78.59
2023-04-20T15:14:34.858Z,77.92
2023-04-20T15:17:01.596Z,80.97
2023-04-20T15:19:28.461Z,80.94
2023-04-20T15:21:55.479Z,80.57
2023-04-20T15:24:22.254Z,82.07
2023-04-20T15:26:49.198Z,81.94
2023-04-20T15:29:16.336Z,78.09
2023-04-20T15:31:45.614Z,77.88
2023-04-20T15:34:15.410Z,77.29
2023-04-20T15:36:43.653Z,80.22
2023-04-20T15:39:10.782Z,78.95
2023-04-20T15:41:55.172Z,81.02
2023-04-20T15:44:21.938Z,81.03
2023-04-20T15:47:06.144Z,80.74
2023-04-20T15:49:35.842Z,81.86
2023-04-20T15:52:04.295Z,80.81
2023-04-20T15:54:40.306Z,81.13
2023-04-20T15:57:07.432Z,80.85
2023-04-20T15:59:34.275Z,79.40
2023-04-20T16:02:01.388Z,78.64
2023-04-20T16:05:00.625Z,79.75
2023-04-20T16:07:27.430Z,79.52
2023-04-20T16:09:54.319Z,78.57
2023-04-20T16:12:21.457Z,79.16
2023-04-20T16:14:49.111Z,78.69
2023-04-20T16:17:17.275Z,78.79
2023-04-20T16:20:06.640Z,79.23
2023-04-20T16:22:33.307Z,78.96
2023-04-20T16:25:00.156Z,78.08
2023-04-20T16:27:37.320Z,77.25
2023-04-20T16:30:07.439Z,76.88
2023-04-20T16:32:50.825Z,77.99
2023-04-20T16:35:17.801Z,77.06
2023-04-20T16:37:45.472Z,76.06
2023-04-20T16:40:12.570Z,77.19
2023-04-20T16:43:09.756Z,77.99
2023-04-20T16:45:37.892Z,77.91
2023-04-20T16:48:05.034Z,75.79
2023-04-20T16:50:32.453Z,75.69
2023-04-20T16:52:59.348Z,75.70
2023-04-20T16:55:26.398Z,77.92
2023-04-20T16:57:59.900Z,78.30
2023-04-20T17:04:23.712Z,76.85
2023-04-20T17:06:51.852Z,77.77
2023-04-20T17:13:18.908Z,72.63
2023-04-20T17:15:46.424Z,75.61
2023-04-20T17:18:13.288Z,72.54
2023-04-20T17:20:49.669Z,74.18
2023-04-20T17:23:17.744Z,76.77
2023-04-20T17:25:47.427Z,77.68
2023-04-20T17:28:14.466Z,77.01
2023-04-20T17:31:06.308Z,76.82
2023-04-20T17:33:34.811Z,76.23
2023-04-20T17:36:28.992Z,74.96
2023-04-20T17:38:55.919Z,75.45
2023-04-20T17:41:26.885Z,76.60
2023-04-20T17:44:21.471Z,78.35
2023-04-20T17:46:52.970Z,76.49
2023-04-20T17:49:19.914Z,75.91
2023-04-20T17:51:46.658Z,75.75
2023-04-20T17:54:16.395Z,77.39
2023-04-20T17:57:28.239Z,82.40
2023-04-20T17:59:55.232Z,79.46
2023-04-20T18:02:36.825Z,77.81
2023-04-20T18:09:05.060Z,78.24
2023-04-20T18:11:31.825Z,79.24
2023-04-20T18:14:14.439Z,79.61
2023-04-20T18:16:41.480Z,80.10
2023-04-20T18:19:08.568Z,78.25
2023-04-20T18:21:35.785Z,78.99
2023-04-20T18:24:04.504Z,80.44
2023-04-20T18:26:58.388Z,81.17
2023-04-20T18:29:25.132Z,79.97
2023-04-20T18:31:53.715Z,77.00
2023-04-20T18:34:20.971Z,76.79
2023-04-20T18:36:47.893Z,77.13
2023-04-20T18:39:15.331Z,76.92
2023-04-20T18:41:42.369Z,76.70
2023-04-20T18:44:20.564Z,77.08
2023-04-20T18:46:48.878Z,77.68
2023-04-20T18:49:51.724Z,77.20
2023-04-20T18:52:50.825Z,77.00
2023-04-20T18:55:17.675Z,77.25
2023-04-20T19:01:45.422Z,78.18
2023-04-20T19:04:12.519Z,77.85
2023-04-20T19:07:20.103Z,77.92
2023-04-20T19:09:48.909Z,78.16
2023-04-20T19:12:15.682Z,79.14
2023-04-20T19:14:42.418Z,79.12
2023-04-20T19:17:09.481Z,79.52
2023-04-20T19:19:36.250Z,79.56
2023-04-20T19:22:04.196Z,79.39
2023-04-20T19:24:34.750Z,79.79
2023-04-20T19:27:02.312Z,79.51
2023-04-20T19:29:29.584Z,79.76
2023-04-20T19:31:57.369Z,80.95
2023-04-20T19:39:04.430Z,80.93
2023-04-20T19:41:31.197Z,80.80
2023-04-20T19:44:28.469Z,81.92
2023-04-20T19:46:55.618Z,87.58
2023-04-20T19:49:24.084Z,83.80
2023-04-20T19:51:50.974Z,81.96
2023-04-20T19:54:17.784Z,81.32
2023-04-20T19:56:44.826Z,80.56
2023-04-20T19:59:11.686Z,81.13
2023-04-20T20:01:38.687Z,81.32
2023-04-20T20:04:06.127Z,81.69
2023-04-20T20:06:33.450Z,82.04
2023-04-20T20:09:00.530Z,82.38
2023-04-20T20:15:21.452Z,83.54
2023-04-20T20:17:48.214Z,83.59
2023-04-20T20:20:17.816Z,84.04
2023-04-20T20:22:48.712Z,84.11
2023-04-20T20:25:33.371Z,83.94
2023-04-20T20:28:01.370Z,84.10
2023-04-20T20:30:28.257Z,84.37
2023-04-20T20:32:55.077Z,84.20
2023-04-20T20:35:48.078Z,84.79
2023-04-20T20:38:14.961Z,83.71
2023-04-20T20:40:42.473Z,84.39
2023-04-20T20:43:37.713Z,84.25
2023-04-20T20:46:04.707Z,84.82
2023-04-20T20:48:33.688Z,84.88
2023-04-20T20:51:00.624Z,84.39
2023-04-20T20:53:27.384Z,84.77
2023-04-20T20:55:54.526Z,84.13
2023-04-20T20:58:38.779Z,84.66
2023-04-20T21:01:05.620Z,84.37
2023-04-20T21:03:32.977Z,84.19
2023-04-20T21:06:00.133Z,84.22
2023-04-20T21:08:33.038Z,83.68
2023-04-20T21:11:01.558Z,83.72
2023-04-20T21:13:28.303Z,83.46
2023-04-20T21:15:57.141Z,83.57
2023-04-20T21:18:24.032Z,83.62
2023-04-20T21:20:50.906Z,84.27
2023-04-20T21:23:18.036Z,83.95
2023-04-20T21:25:55.396Z,85.12
2023-04-20T21:28:22.208Z,84.85
2023-04-20T21:34:48.975Z,85.36
2023-04-20T21:37:51.464Z,85.28
2023-04-20T21:40:18.094Z,85.93
2023-04-20T21:46:45.085Z,86.57
2023-04-20T21:49:11.851Z,86.41
2023-04-20T21:51:38.646Z,85.85
2023-04-20T21:54:05.733Z,86.19
2023-04-20T21:56:32.481Z,85.97
2023-04-20T21:59:00.729Z,85.86
2023-04-20T22:01:27.588Z,85.73
2023-04-20T22:03:54.481Z,85.23
2023-04-20T22:10:05.520Z,84.18
2023-04-20T22:12:52.628Z,84.14
2023-04-20T22:15:22.385Z,84.79
2023-04-20T22:17:49.426Z,84.67
2023-04-20T22:20:19.427Z,84.12
2023-04-20T22:26:33.481Z,84.59
2023-04-20T22:29:00.450Z,84.98
2023-04-20T22:31:27.388Z,84.63
2023-04-20T22:33:54.361Z,84.64
2023-04-20T22:36:21.573Z,84.72
2023-04-20T22:38:48.647Z,84.48
2023-04-20T22:41:46.821Z,84.26
2023-04-20T22:44:13.670Z,84.64
2023-04-20T22:46:40.963Z,84.64
2023-04-20T22:49:25.076Z,84.65
2023-04-20T22:51:52.843Z,84.84
2023-04-20T22:54:19.573Z,84.82
2023-04-20T22:56:46.300Z,84.85
2023-04-20T23:03:13.353Z,85.27
2023-04-20T23:05:44.543Z,85.94
2023-04-20T23:08:21.406Z,85.68
2023-04-20T23:10:48.305Z,85.52
2023-04-20T23:13:18.202Z,85.39
2023-04-20T23:15:50.186Z,85.71
2023-04-20T23:18:17.031Z,84.89
2023-04-20T23:20:44.008Z,85.25
2023-04-20T23:23:11.050Z,86.22
2023-04-20T23:25:38.297Z,86.49
2023-04-20T23:28:13.614Z,85.97
2023-04-20T23:30:40.471Z,87.05
2023-04-20T23:36:58.509Z,86.30
2023-04-20T23:39:25.374Z,86.75
2023-04-20T23:41:52.212Z,86.42
2023-04-20T23:44:18.905Z,86.57
2023-04-20T23:46:45.558Z,87.04
2023-04-20T23:49:12.199Z,87.25
2023-04-20T23:51:57.487Z,87.27
2023-04-20T23:54:24.366Z,87.73
2023-04-20T23:56:51.332Z,87.36
2023-04-20T23:59:19.296Z,87.84
